Map

Track Data

SID SEASON NUMBER BASIN SUBBASIN NAME ISO_TIME NATURE LAT LON WMO_WIND WMO_PRES WMO_AGENCY TRACK_TYPE DIST2LAND LANDFALL IFLAG USA_AGENCY USA_ATCF_ID USA_LAT USA_LON USA_RECORD USA_STATUS USA_WIND USA_PRES USA_SSHS USA_R34_NE USA_R34_SE USA_R34_SW USA_R34_NW USA_R50_NE USA_R50_SE USA_R50_SW USA_R50_NW USA_R64_NE USA_R64_SE USA_R64_SW USA_R64_NW USA_POCI USA_ROCI USA_RMW USA_EYE TOKYO_LAT TOKYO_LON TOKYO_GRADE TOKYO_WIND TOKYO_PRES TOKYO_R50_DIR TOKYO_R50_LONG TOKYO_R50_SHORT TOKYO_R30_DIR TOKYO_R30_LONG TOKYO_R30_SHORT TOKYO_LAND CMA_LAT CMA_LON CMA_CAT CMA_WIND CMA_PRES HKO_LAT HKO_LON HKO_CAT HKO_WIND HKO_PRES NEWDELHI_LAT NEWDELHI_LON NEWDELHI_GRADE NEWDELHI_WIND NEWDELHI_PRES NEWDELHI_CI NEWDELHI_DP NEWDELHI_POCI REUNION_LAT REUNION_LON REUNION_TYPE REUNION_WIND REUNION_PRES REUNION_TNUM REUNION_CI REUNION_RMW REUNION_R34_NE REUNION_R34_SE REUNION_R34_SW REUNION_R34_NW REUNION_R50_NE REUNION_R50_SE REUNION_R50_SW REUNION_R50_NW REUNION_R64_NE REUNION_R64_SE REUNION_R64_SW REUNION_R64_NW BOM_LAT BOM_LON BOM_TYPE BOM_WIND BOM_PRES BOM_TNUM BOM_CI BOM_RMW BOM_R34_NE BOM_R34_SE BOM_R34_SW BOM_R34_NW BOM_R50_NE BOM_R50_SE BOM_R50_SW BOM_R50_NW BOM_R64_NE BOM_R64_SE BOM_R64_SW BOM_R64_NW BOM_ROCI BOM_POCI BOM_EYE BOM_POS_METHOD BOM_PRES_METHOD NADI_LAT NADI_LON NADI_CAT NADI_WIND NADI_PRES WELLINGTON_LAT WELLINGTON_LON WELLINGTON_WIND WELLINGTON_PRES DS824_LAT DS824_LON DS824_STAGE DS824_WIND DS824_PRES TD9636_LAT TD9636_LON TD9636_STAGE TD9636_WIND TD9636_PRES TD9635_LAT TD9635_LON TD9635_WIND TD9635_PRES TD9635_ROCI NEUMANN_LAT NEUMANN_LON NEUMANN_CLASS NEUMANN_WIND NEUMANN_PRES MLC_LAT MLC_LON MLC_CLASS MLC_WIND MLC_PRES USA_GUST BOM_GUST BOM_GUST_PER REUNION_GUST REUNION_GUST_PER USA_SEAHGT USA_SEARAD_NE USA_SEARAD_SE USA_SEARAD_SW USA_SEARAD_NW STORM_SPEED STORM_DIR
1935266N15285 1935 54 NA CS NOT_NAMED 1935-09-23 06:00:00 TS 14.8000 -74.7000 25 hurdat_atl main 368 368 O_____________ hurdat_atl AL051935 14.8000 -74.7000 TD 25 -1 4 236
1935266N15285 1935 54 NA CS NOT_NAMED 1935-09-23 09:00:00 TS 14.7000 -74.8525 main 384 384 P_____________ AL051935 14.7000 -74.8525 TD 25 -1 4 236
1935266N15285 1935 54 NA CS NOT_NAMED 1935-09-23 12:00:00 TS 14.6000 -75.0000 25 hurdat_atl main 390 382 O_____________ hurdat_atl AL051935 14.6000 -75.0000 TD 25 -1 3 235
1935266N15285 1935 54 NA CS NOT_NAMED 1935-09-23 15:00:00 TS 14.5000 -75.1425 main 382 374 P_____________ AL051935 14.5000 -75.1425 TD 27 -1 4 236
1935266N15285 1935 54 NA CS NOT_NAMED 1935-09-23 18:00:00 TS 14.4000 -75.3000 30 hurdat_atl main 377 370 O_____________ hurdat_atl AL051935 14.4000 -75.3000 TD 30 -1 4 238
1935266N15285 1935 54 NA CS NOT_NAMED 1935-09-23 21:00:00 TS 14.2925 -75.4925 main 374 366 P_____________ AL051935 14.2925 -75.4925 TD 32 -1 4 243
1935266N15285 1935 54 NA CS NOT_NAMED 1935-09-24 00:00:00 TS 14.2000 -75.7000 35 hurdat_atl main 368 360 O_____________ hurdat_atl AL051935 14.2000 -75.7000 TS 35 0 4 248
1935266N15285 1935 54 NA CS NOT_NAMED 1935-09-24 03:00:00 TS 14.1350 -75.9000 main 363 363 P_____________ AL051935 14.1350 -75.9000 TS 37 0 4 256
1935266N15285 1935 54 NA CS NOT_NAMED 1935-09-24 06:00:00 TS 14.1000 -76.1000 40 hurdat_atl main 370 370 O_____________ hurdat_atl AL051935 14.1000 -76.1000 TS 40 0 4 264
1935266N15285 1935 54 NA CS NOT_NAMED 1935-09-24 09:00:00 TS 14.0925 -76.2925 main 378 378 P_____________ AL051935 14.0925 -76.2925 TS 42 0 4 270
1935266N15285 1935 54 NA CS NOT_NAMED 1935-09-24 12:00:00 TS 14.1000 -76.5000 45 hurdat_atl main 388 388 O_____________ hurdat_atl AL051935 14.1000 -76.5000 TS 45 0 4 270
1935266N15285 1935 54 NA CS NOT_NAMED 1935-09-24 15:00:00 TS 14.0924 -76.7275 main 398 398 P_____________ AL051935 14.0924 -76.7275 TS 47 0 5 270
1935266N15285 1935 54 NA CS NOT_NAMED 1935-09-24 18:00:00 TS 14.1000 -77.0000 50 hurdat_atl main 403 402 O_____________ hurdat_atl AL051935 14.1000 -77.0000 TS 50 0 6 275
1935266N15285 1935 54 NA CS NOT_NAMED 1935-09-24 21:00:00 TS 14.1425 -77.3350 main 403 392 P_____________ AL051935 14.1425 -77.3350 TS 52 0 7 278
1935266N15285 1935 54 NA CS NOT_NAMED 1935-09-25 00:00:00 TS 14.2000 -77.7000 55 hurdat_atl main 395 395 O_____________ hurdat_atl AL051935 14.2000 -77.7000 TS 55 0 7 278
1935266N15285 1935 54 NA CS NOT_NAMED 1935-09-25 03:00:00 TS 14.2425 -78.0575 main 403 392 P_____________ AL051935 14.2425 -78.0575 TS 57 0 7 278
1935266N15285 1935 54 NA CS NOT_NAMED 1935-09-25 06:00:00 TS 14.3000 -78.4000 60 hurdat_atl main 401 398 O_____________ hurdat_atl AL051935 14.3000 -78.4000 TS 60 0 7 283
1935266N15285 1935 54 NA CS NOT_NAMED 1935-09-25 09:00:00 TS 14.3925 -78.7225 main 402 401 P_____________ AL051935 14.3925 -78.7225 TS 62 0 6 289
1935266N15285 1935 54 NA CS NOT_NAMED 1935-09-25 12:00:00 TS 14.5000 -79.0000 65 hurdat_atl main 405 398 O_____________ hurdat_atl AL051935 14.5000 -79.0000 HU 65 1 5 293
1935266N15285 1935 54 NA CS NOT_NAMED 1935-09-25 15:00:00 TS 14.6000 -79.2225 main 402 396 P_____________ AL051935 14.6000 -79.2225 HU 67 1 4 297
1935266N15285 1935 54 NA CS NOT_NAMED 1935-09-25 18:00:00 TS 14.7000 -79.4000 70 hurdat_atl main 399 376 O_____________ hurdat_atl AL051935 14.7000 -79.4000 HU 70 1 4 301
1935266N15285 1935 54 NA CS NOT_NAMED 1935-09-25 21:00:00 TS 14.8000 -79.5725 main 376 365 P_____________ AL051935 14.8000 -79.5725 HU 72 1 4 304
1935266N15285 1935 54 NA CS NOT_NAMED 1935-09-26 00:00:00 TS 14.9000 -79.7000 75 hurdat_atl main 365 354 O_____________ hurdat_atl AL051935 14.9000 -79.7000 HU 75 1 3 316
1935266N15285 1935 54 NA CS NOT_NAMED 1935-09-26 03:00:00 TS 15.0000 -79.7725 main 354 354 P_____________ AL051935 15.0000 -79.7725 HU 77 1 2 333
1935266N15285 1935 54 NA CS NOT_NAMED 1935-09-26 06:00:00 TS 15.1000 -79.8000 80 hurdat_atl main 354 354 O_____________ hurdat_atl AL051935 15.1000 -79.8000 HU 80 1 2 347
1935266N15285 1935 54 NA CS NOT_NAMED 1935-09-26 09:00:00 TS 15.1850 -79.8075 main 355 355 P_____________ AL051935 15.1850 -79.8075 HU 82 1 2 8
1935266N15285 1935 54 NA CS NOT_NAMED 1935-09-26 12:00:00 TS 15.3000 -79.8000 85 hurdat_atl main 355 336 O_____________ hurdat_atl AL051935 15.3000 -79.8000 HU 85 2 3 5
1935266N15285 1935 54 NA CS NOT_NAMED 1935-09-26 15:00:00 TS 15.4775 -79.8000 main 336 316 P_____________ AL051935 15.4775 -79.8000 HU 87 2 4 0
1935266N15285 1935 54 NA CS NOT_NAMED 1935-09-26 18:00:00 TS 15.7000 -79.8000 90 hurdat_atl main 316 297 O_____________ hurdat_atl AL051935 15.7000 -79.8000 HU 90 2 5 0
1935266N15285 1935 54 NA CS NOT_NAMED 1935-09-26 21:00:00 TS 15.9425 -79.8000 main 297 268 P_____________ AL051935 15.9425 -79.8000 HU 92 2 5 2
1935266N15285 1935 54 NA CS NOT_NAMED 1935-09-27 00:00:00 TS 16.2000 -79.8000 95 hurdat_atl main 268 250 O_____________ hurdat_atl AL051935 16.2000 -79.8000 HU 95 2 5 3
1935266N15285 1935 54 NA CS NOT_NAMED 1935-09-27 03:00:00 TS 16.4500 -79.8000 main 241 224 P_____________ AL051935 16.4500 -79.8000 HU 95 2 5 2
1935266N15285 1935 54 NA CS NOT_NAMED 1935-09-27 06:00:00 TS 16.7000 -79.8000 95 hurdat_atl main 224 207 O_____________ hurdat_atl AL051935 16.7000 -79.8000 HU 95 2 5 3
1935266N15285 1935 54 NA CS NOT_NAMED 1935-09-27 09:00:00 TS 16.9275 -79.7925 main 207 185 P_____________ AL051935 16.9275 -79.7925 HU 97 3 5 2
1935266N15285 1935 54 NA CS NOT_NAMED 1935-09-27 12:00:00 TS 17.2000 -79.8000 100 hurdat_atl main 185 167 O_____________ hurdat_atl AL051935 17.2000 -79.8000 HU 100 3 6 356
1935266N15285 1935 54 NA CS NOT_NAMED 1935-09-27 15:00:00 TS 17.5475 -79.8351 main 167 158 P_____________ AL051935 17.5475 -79.8351 HU 100 3 8 353
1935266N15285 1935 54 NA CS NOT_NAMED 1935-09-27 18:00:00 TS 18.0000 -79.9000 100 hurdat_atl main 160 158 O_____________ hurdat_atl AL051935 18.0000 -79.9000 HU 100 3 10 351
1935266N15285 1935 54 NA CS NOT_NAMED 1935-09-27 21:00:00 TS 18.4951 -79.9926 main 172 172 P_____________ AL051935 18.4951 -79.9926 HU 102 3 12 351
1935266N15285 1935 54 NA CS NOT_NAMED 1935-09-28 00:00:00 TS 19.2000 -80.1000 105 hurdat_atl main 209 169 O_____________ hurdat_atl AL051935 19.2000 -80.1000 HU 105 3 18 354
1935266N15285 1935 54 NA CS NOT_NAMED 1935-09-28 03:00:00 TS 20.2925 -80.2072 main 157 54 P_____________ AL051935 20.2925 -80.2072 HU 105 3 22 355
1935266N15285 1935 54 NA CS NOT_NAMED 1935-09-28 06:00:00 TS 21.4000 -80.3000 105 955 hurdat_atl main 45 0 O_____________ hurdat_atl AL051935 21.4000 -80.3000 HU 105 955 3 18 355
1935266N15285 1935 54 NA NA NOT_NAMED 1935-09-28 09:00:00 TS 22.1174 -80.3799 main 0 0 P_____________ AL051935 22.1174 -80.3799 HU 102 3 13 356
1935266N15285 1935 54 NA NA NOT_NAMED 1935-09-28 12:00:00 TS 22.7000 -80.4000 100 hurdat_atl main 0 0 O_____________ hurdat_atl AL051935 22.7000 -80.4000 HU 100 3 12 0
1935266N15285 1935 54 NA NA NOT_NAMED 1935-09-28 15:00:00 TS 23.3574 -80.3523 main 45 45 P_____________ AL051935 23.3574 -80.3523 HU 102 3 13 8
1935266N15285 1935 54 NA NA NOT_NAMED 1935-09-28 18:00:00 TS 24.0000 -80.2000 105 hurdat_atl main 115 68 O_____________ hurdat_atl AL051935 24.0000 -80.2000 HU 105 3 13 17
1935266N15285 1935 54 NA NA NOT_NAMED 1935-09-28 21:00:00 TS 24.6376 -79.9303 main 75 60 P_____________ AL051935 24.6376 -79.9303 HU 112 3 13 24
1935266N15285 1935 54 NA NA NOT_NAMED 1935-09-29 00:00:00 TS 25.2000 -79.6000 120 hurdat_atl main 77 73 O_____________ hurdat_atl AL051935 25.2000 -79.6000 HU 120 4 11 29
1935266N15285 1935 54 NA NA NOT_NAMED 1935-09-29 03:00:00 TS 25.6373 -79.3145 main 83 80 P_____________ AL051935 25.6373 -79.3145 HU 120 4 10 34
1935266N15285 1935 54 NA NA NOT_NAMED 1935-09-29 06:00:00 TS 26.0000 -79.0000 120 hurdat_atl main 109 109 O_____________ hurdat_atl AL051935 26.0000 -79.0000 HU 120 4 9 41
1935266N15285 1935 54 NA NA NOT_NAMED 1935-09-29 09:00:00 TS 26.3347 -78.6442 main 143 143 P_____________ AL051935 26.3347 -78.6442 HU 117 4 10 46
1935266N15285 1935 54 NA NA NOT_NAMED 1935-09-29 12:00:00 TS 26.7000 -78.2000 115 hurdat_atl main 178 178 O_____________ hurdat_atl AL051935 26.7000 -78.2000 HU 115 4 12 46
1935266N15285 1935 54 NA NA NOT_NAMED 1935-09-29 15:00:00 TS 27.1694 -77.6743 main 231 231 P_____________ AL051935 27.1694 -77.6743 HU 112 3 15 47
1935266N15285 1935 54 NA NA NOT_NAMED 1935-09-29 18:00:00 TS 27.7000 -77.0000 110 hurdat_atl main 306 306 O_____________ hurdat_atl AL051935 27.7000 -77.0000 HU 110 3 17 51
1935266N15285 1935 54 NA NA NOT_NAMED 1935-09-29 21:00:00 TS 28.2269 -76.1812 main 389 389 P_____________ AL051935 28.2269 -76.1812 HU 107 3 19 55
1935266N15285 1935 54 NA NA NOT_NAMED 1935-09-30 00:00:00 TS 28.8000 -75.2000 105 hurdat_atl main 497 497 O_____________ hurdat_atl AL051935 28.8000 -75.2000 HU 105 3 22 56
1935266N15285 1935 54 NA NA NOT_NAMED 1935-09-30 03:00:00 TS 29.4345 -74.1018 main 615 608 P_____________ AL051935 29.4345 -74.1018 HU 102 3 24 57
1935266N15285 1935 54 NA NA NOT_NAMED 1935-09-30 06:00:00 TS 30.1000 -72.9000 100 hurdat_atl main 613 609 O_____________ hurdat_atl AL051935 30.1000 -72.9000 HU 100 3 25 58
1935266N15285 1935 54 NA NA NOT_NAMED 1935-09-30 09:00:00 TS 30.7502 -71.6269 main 630 630 P_____________ AL051935 30.7502 -71.6269 HU 97 3 25 59
1935266N15285 1935 54 NA NA NOT_NAMED 1935-09-30 12:00:00 TS 31.4000 -70.4000 95 hurdat_atl main 672 672 O_____________ hurdat_atl AL051935 31.4000 -70.4000 HU 95 2 24 57
1935266N15285 1935 54 NA NA NOT_NAMED 1935-09-30 15:00:00 TS 32.0267 -69.3158 main 710 703 P_____________ AL051935 32.0267 -69.3158 HU 92 2 21 53
1935266N15285 1935 54 NA NA NOT_NAMED 1935-09-30 18:00:00 TS 32.7000 -68.4000 90 hurdat_atl main 736 736 O_____________ hurdat_atl AL051935 32.7000 -68.4000 HU 90 2 20 45
1935266N15285 1935 54 NA NA NOT_NAMED 1935-09-30 21:00:00 TS 33.4312 -67.6593 main 760 760 P_____________ AL051935 33.4312 -67.6593 HU 90 2 20 36
1935266N15285 1935 54 NA NA NOT_NAMED 1935-10-01 00:00:00 TS 34.3000 -67.0000 90 hurdat_atl main 789 781 O_____________ hurdat_atl AL051935 34.3000 -67.0000 HU 90 2 22 31
1935266N15285 1935 54 NA NA NOT_NAMED 1935-10-01 03:00:00 TS 35.3465 -66.2924 main 781 700 P_____________ AL051935 35.3465 -66.2924 HU 90 2 25 29
1935266N15285 1935 54 NA NA NOT_NAMED 1935-10-01 06:00:00 TS 36.5000 -65.5000 90 hurdat_atl main 696 648 O_____________ hurdat_atl AL051935 36.5000 -65.5000 HU 90 2 27 31
1935266N15285 1935 54 NA NA NOT_NAMED 1935-10-01 09:00:00 TS 37.6725 -64.5376 main 646 552 P_____________ AL051935 37.6725 -64.5376 HU 87 2 28 35
1935266N15285 1935 54 NA NA NOT_NAMED 1935-10-01 12:00:00 TS 38.8000 -63.5000 85 hurdat_atl main 544 478 O_____________ hurdat_atl AL051935 38.8000 -63.5000 HU 85 2 26 37
1935266N15285 1935 54 NA NA NOT_NAMED 1935-10-01 15:00:00 TS 39.7481 -62.5303 main 482 442 P_____________ AL051935 39.7481 -62.5303 HU 85 2 24 39
1935266N15285 1935 54 NA NA NOT_NAMED 1935-10-01 18:00:00 TS 40.7000 -61.5000 85 hurdat_atl main 438 384 O_____________ hurdat_atl AL051935 40.7000 -61.5000 HU 85 2 27 40
1935266N15285 1935 54 NA NA NOT_NAMED 1935-10-01 21:00:00 TS 41.7825 -60.2840 main 377 301 P_____________ AL051935 41.7825 -60.2840 HU 80 1 30 39
1935266N15285 1935 54 NA NA NOT_NAMED 1935-10-02 00:00:00 TS 43.0000 -59.0000 75 hurdat_atl main 296 245 O_____________ hurdat_atl AL051935 43.0000 -59.0000 HU 75 1 32 36
1935266N15285 1935 54 NA NA NOT_NAMED 1935-10-02 03:00:00 TS 44.3529 -57.7734 main 237 140 P_____________ AL051935 44.3529 -57.7734 HU 70 1 33 33
1935266N15285 1935 54 NA NA NOT_NAMED 1935-10-02 06:00:00 ET 45.8000 -56.5000 65 hurdat_atl main 126 0 O_____________ hurdat_atl AL051935 45.8000 -56.5000 EX 65 -4 35 32
1935266N15285 1935 54 NA NA NOT_NAMED 1935-10-02 09:00:00 ET 47.3684 -55.1003 main 0 0 P_____________ AL051935 47.3684 -55.1003 EX 62 -4 35 34
1935266N15285 1935 54 NA NA NOT_NAMED 1935-10-02 12:00:00 ET 48.7000 -53.6000 60 hurdat_atl main 21 21 O_____________ hurdat_atl AL051935 48.7000 -53.6000 EX 60 -4 29 44
1935266N15285 1935 54 NA NA NOT_NAMED 1935-10-02 15:00:00 ET 49.4763 -52.0564 main 103 103 P_____________ AL051935 49.4763 -52.0564 EX 57 -4 23 59
1935266N15285 1935 54 NA NA NOT_NAMED 1935-10-02 18:00:00 ET 49.9000 -50.5000 55 hurdat_atl main 225 O_____________ hurdat_atl AL051935 49.9000 -50.5000 EX 55 -4 22 67

About IBTrACS Database

This database is a web-friendly format of International Best Track Archive for Climate Stewardship (IBTrACS), a global best track data archive curated by NOAA dating back to 1842.

Updated: 2021-10-08